Historique des mesures à Cassis (13260), France
Quotidien Résumé Mars 25, 2020 Unités:  Métrique    US   Métrique/US
Quotidien Hebdomadaire Mensuel Annuel
  Maximum: Minimum: Moyenne:
Température: 20.6 °C 13.9 °C 17 °C
Point de rosée: 16.8 °C 5.5 °C 8.9 °C
Humidité: 79% 45% 60%
Vitesse du vent: 35.3km/h 2.5km/h 15km/h
Rafales: 52.6km/h - -
Vent- - WSW
Pression: 1005.2 hPa 1001.5 hPa -
Précipitations: 0.0 mm    
Historical Graphs
 
 
Mesures pour : Mars 25, 2020
Heure Temperature Point de rosée Pression Vent Vitesse du vent Rafales Humidité Pluie (par heure)
00:12 20.6 °C 16.8 °C 1003.4 hPa WNW 7.2 km/h 16.9 km/h 79% 0.0 mm
01:12 20.1 °C 15.1 °C 1003.0 hPa NNW 4 km/h 7.9 km/h 73% 0.0 mm
02:12 20.1 °C 11.6 °C 1002.7 hPa NW 10.4 km/h 19.8 km/h 58% 0.0 mm
03:12 19.6 °C 11.9 °C 1002.5 hPa NW 5.8 km/h 19.1 km/h 61% 0.0 mm
04:12 18.5 °C 13 °C 1002.5 hPa WNW 4.7 km/h 8.6 km/h 70% 0.0 mm
05:12 17.8 °C 12.5 °C 1002.2 hPa North 6.1 km/h 18.7 km/h 71% 0.0 mm
06:12 17.2 °C 12.1 °C 1002.8 hPa West 19.8 km/h 41 km/h 72% 0.0 mm
07:12 15.3 °C 9.4 °C 1003.2 hPa WNW 2.5 km/h 22 km/h 68% 0.0 mm
08:12 14.6 °C 9.4 °C 1003.9 hPa West 3.6 km/h 15.8 km/h 71% 0.0 mm
09:12 14.9 °C 9 °C 1002.6 hPa WNW 23.4 km/h 23.4 km/h 68% 0.0 mm
10:12 15.2 °C 8 °C 1003.3 hPa NW 14.8 km/h 25.2 km/h 62% 0.0 mm
11:12 15.9 °C 6.9 °C 1002.8 hPa West 27.7 km/h 34.9 km/h 55% 0.0 mm
12:12 16.5 °C 6.6 °C 1002.6 hPa WNW 9.7 km/h 34.9 km/h 52% 0.0 mm
13:12 17.8 °C 7.5 °C 1002.5 hPa WNW 28.8 km/h 29.5 km/h 51% 0.0 mm
14:12 17.5 °C 7.5 °C 1002.2 hPa West 25.6 km/h 28.8 km/h 52% 0.0 mm
15:12 17.3 °C 8.1 °C 1001.8 hPa North 18.4 km/h 27 km/h 55% 0.0 mm
16:12 17.5 °C 7.5 °C 1001.5 hPa NNW 12.2 km/h 35.6 km/h 52% 0.0 mm
17:12 17.9 °C 5.7 °C 1001.8 hPa WNW 19.4 km/h 52.6 km/h 45% 0.0 mm
18:12 17.6 °C 5.8 °C 1002.3 hPa West 17.6 km/h 37.4 km/h 46% 0.0 mm
19:12 16.9 °C 6.1 °C 1002.7 hPa WNW 16.2 km/h 37.8 km/h 49% 0.0 mm
20:12 16.2 °C 5.5 °C 1003.3 hPa WNW 18.4 km/h 33.8 km/h 49% 0.0 mm
21:12 15.3 °C 5.5 °C 1004.2 hPa West 10.8 km/h 51.1 km/h 52% 0.0 mm
22:12 14.8 °C 6.1 °C 1004.7 hPa North 18.4 km/h 25.9 km/h 56% 0.0 mm
23:12 13.9 °C 6.3 °C 1005.2 hPa WNW 35.3 km/h 46.4 km/h 60% 0.0 mm
Observations météo à CASSIS
WU-History script by Weather Underground - 2 mb